createdAt,value
2023-03-13T00:00:07.516Z,11.27
2023-03-13T00:00:34.017Z,11.27
2023-03-13T00:01:01.139Z,11.27
2023-03-13T00:01:28.890Z,11.22
2023-03-13T00:01:59.082Z,11.22
2023-03-13T00:02:34.082Z,11.22
2023-03-13T00:03:02.990Z,11.22
2023-03-13T00:03:35.421Z,11.22
2023-03-13T00:04:14.042Z,11.11
2023-03-13T00:04:34.114Z,11.11
2023-03-13T00:04:55.175Z,11.11
2023-03-13T00:05:27.506Z,11.11
2023-03-13T00:06:00.056Z,11.11
2023-03-13T00:06:31.237Z,11.11
2023-03-13T00:07:20.754Z,11.00
2023-03-13T00:07:55.238Z,11.00
2023-03-13T00:08:25.801Z,11.00
2023-03-13T00:08:57.340Z,11.00
2023-03-13T00:09:27.673Z,11.00
2023-03-13T00:09:59.865Z,10.62
2023-03-13T00:10:31.868Z,10.88
2023-03-13T00:11:20.050Z,10.88
2023-03-13T00:11:44.238Z,10.46
2023-03-13T00:12:08.591Z,10.88
2023-03-13T00:12:34.093Z,10.13
2023-03-13T00:12:57.672Z,10.88
2023-03-13T00:13:26.942Z,10.20
2023-03-13T00:13:59.734Z,10.88
2023-03-13T00:14:31.113Z,10.88
2023-03-13T00:15:11.154Z,10.88
2023-03-13T00:15:34.363Z,10.88
2023-03-13T00:15:51.433Z,10.46
2023-03-13T00:16:23.916Z,10.88
2023-03-13T00:16:42.086Z,10.46
2023-03-13T00:17:11.108Z,10.88
2023-03-13T00:17:37.660Z,10.20
2023-03-13T00:17:58.913Z,10.46
2023-03-13T00:18:35.196Z,10.20
2023-03-13T00:19:02.994Z,10.88
2023-03-13T00:19:34.075Z,10.88
2023-03-13T00:19:54.829Z,10.88
2023-03-13T00:20:24.038Z,10.88
2023-03-13T00:20:41.114Z,10.88
2023-03-13T00:21:13.762Z,10.62
2023-03-13T00:21:34.232Z,10.88
2023-03-13T00:21:58.968Z,10.62
2023-03-13T00:22:31.337Z,10.88
2023-03-13T00:23:03.087Z,10.88
2023-03-13T00:23:37.898Z,10.88
2023-03-13T00:24:07.066Z,10.88
2023-03-13T00:24:34.149Z,10.88
2023-03-13T00:24:55.217Z,10.88
2023-03-13T00:25:27.460Z,10.88
2023-03-13T00:26:11.800Z,11.00
2023-03-13T00:26:31.814Z,11.00
2023-03-13T00:27:02.978Z,11.00
2023-03-13T00:27:36.112Z,11.00
2023-03-13T00:28:07.992Z,11.00
2023-03-13T00:28:34.091Z,11.00
2023-03-13T00:28:56.731Z,11.00
2023-03-13T00:29:29.007Z,11.00
2023-03-13T00:30:00.396Z,11.00
2023-03-13T00:30:31.595Z,11.00
2023-03-13T00:31:03.775Z,11.00
2023-03-13T00:31:36.337Z,11.00
2023-03-13T00:32:11.874Z,11.00
2023-03-13T00:33:14.358Z,11.11
2023-03-13T00:33:34.762Z,11.11
2023-03-13T00:34:07.802Z,11.11
2023-03-13T00:34:31.608Z,11.11
2023-03-13T00:35:04.065Z,11.11
2023-03-13T00:35:50.320Z,11.11
2023-03-13T00:36:07.572Z,11.11
2023-03-13T00:36:34.121Z,11.11
2023-03-13T00:37:18.695Z,11.11
2023-03-13T00:37:52.346Z,11.11
2023-03-13T00:38:14.934Z,11.11
2023-03-13T00:38:34.285Z,11.11
2023-03-13T00:39:21.404Z,11.11
2023-03-13T00:39:52.041Z,11.11
2023-03-13T00:40:23.077Z,11.11
2023-03-13T00:40:44.066Z,11.11
2023-03-13T00:41:11.098Z,11.22
2023-03-13T00:41:34.471Z,11.22
2023-03-13T00:42:00.028Z,11.22
2023-03-13T00:42:31.869Z,11.27
2023-03-13T00:43:13.714Z,11.27
2023-03-13T00:43:34.903Z,11.27
2023-03-13T00:44:07.019Z,11.27
2023-03-13T00:44:40.711Z,11.27
2023-03-13T00:45:14.054Z,11.27
2023-03-13T00:45:34.891Z,11.27
2023-03-13T00:46:00.919Z,11.27
2023-03-13T00:46:31.059Z,11.27
2023-03-13T00:47:03.714Z,11.27
2023-03-13T00:47:34.980Z,11.27
2023-03-13T00:48:07.842Z,11.27
2023-03-13T00:48:40.958Z,11.27
2023-03-13T00:49:14.558Z,11.22
2023-03-13T00:49:34.595Z,11.22
2023-03-13T00:49:59.947Z,11.22
2023-03-13T00:50:31.844Z,11.22
2023-03-13T00:51:02.905Z,11.22
2023-03-13T00:51:35.779Z,11.22
2023-03-13T00:52:07.810Z,11.22
2023-03-13T00:52:33.969Z,11.22
2023-03-13T00:52:57.971Z,11.27
2023-03-13T00:53:32.980Z,11.27
2023-03-13T00:54:36.147Z,11.27
2023-03-13T00:55:03.079Z,11.27
2023-03-13T00:55:37.039Z,11.27
2023-03-13T00:55:53.437Z,11.27
2023-03-13T00:56:23.730Z,11.27
2023-03-13T00:56:41.633Z,11.27
2023-03-13T00:57:11.030Z,11.27
2023-03-13T00:57:35.808Z,11.27
2023-03-13T00:57:58.899Z,11.27
2023-03-13T00:58:32.820Z,11.27
2023-03-13T00:59:06.114Z,11.38
2023-03-13T00:59:40.666Z,11.38
2023-03-13T01:00:13.523Z,11.38
2023-03-13T01:00:36.107Z,11.38
2023-03-13T01:00:56.505Z,11.38
2023-03-13T01:01:33.156Z,11.38
2023-03-13T01:02:19.310Z,11.38
2023-03-13T01:02:40.079Z,11.38
2023-03-13T01:03:03.038Z,11.38
2023-03-13T01:03:36.052Z,11.38
2023-03-13T01:04:17.477Z,11.38
2023-03-13T01:04:33.997Z,11.38
2023-03-13T01:05:02.789Z,11.38
2023-03-13T01:05:28.506Z,11.38
2023-03-13T01:06:10.022Z,11.38
2023-03-13T01:06:32.173Z,11.38
2023-03-13T01:07:02.950Z,11.38
2023-03-13T01:07:35.154Z,11.38
2023-03-13T01:08:08.760Z,11.38
2023-03-13T01:08:34.793Z,11.38
2023-03-13T01:08:55.010Z,11.38
2023-03-13T01:09:26.921Z,11.38
2023-03-13T01:09:59.712Z,11.38
2023-03-13T01:10:32.034Z,11.38
2023-03-13T01:11:08.657Z,11.38
2023-03-13T01:11:34.031Z,11.38
2023-03-13T01:11:54.749Z,11.38
2023-03-13T01:12:31.484Z,11.38
2023-03-13T01:13:09.296Z,11.38
2023-03-13T01:13:30.382Z,11.38
2023-03-13T01:14:03.522Z,11.38
2023-03-13T01:14:48.372Z,11.38
2023-03-13T01:15:19.208Z,11.38
2023-03-13T01:15:53.756Z,11.38
2023-03-13T01:16:23.838Z,11.38
2023-03-13T01:16:45.094Z,11.38
2023-03-13T01:17:11.048Z,11.38
2023-03-13T01:17:34.434Z,11.38
2023-03-13T01:17:59.770Z,11.38
2023-03-13T01:18:31.823Z,11.38
2023-03-13T01:19:02.926Z,11.38
2023-03-13T01:19:34.044Z,11.38
2023-03-13T01:19:53.412Z,11.38
2023-03-13T01:20:31.894Z,11.27
2023-03-13T01:20:54.968Z,11.27
2023-03-13T01:21:30.838Z,11.27
2023-03-13T01:21:59.542Z,11.27
2023-03-13T01:22:30.971Z,11.27
2023-03-13T01:23:04.241Z,11.27
2023-03-13T01:23:34.025Z,11.27
2023-03-13T01:23:50.891Z,11.27
2023-03-13T01:24:22.969Z,11.27
2023-03-13T01:24:43.423Z,11.27
2023-03-13T01:25:11.192Z,11.27
2023-03-13T01:25:35.993Z,11.27
2023-03-13T01:26:02.764Z,11.22
2023-03-13T01:26:35.126Z,11.22
2023-03-13T01:27:04.303Z,11.22
2023-03-13T01:27:34.992Z,11.22
2023-03-13T01:28:08.636Z,11.22
2023-03-13T01:28:38.275Z,11.22
2023-03-13T01:28:54.720Z,11.11
2023-03-13T01:29:27.383Z,11.11
2023-03-13T01:30:02.585Z,11.11
2023-03-13T01:30:33.929Z,11.11
2023-03-13T01:31:05.917Z,11.11
2023-03-13T01:31:43.073Z,11.11
2023-03-13T01:32:06.956Z,11.11
2023-03-13T01:32:34.192Z,11.11
2023-03-13T01:32:56.175Z,11.11
2023-03-13T01:33:27.179Z,11.11
2023-03-13T01:34:00.839Z,11.11
2023-03-13T01:34:30.963Z,11.00
2023-03-13T01:35:11.836Z,11.00
2023-03-13T01:35:34.444Z,11.00
2023-03-13T01:35:51.225Z,11.00
2023-03-13T01:36:32.739Z,11.00
2023-03-13T01:36:55.304Z,11.00
2023-03-13T01:37:26.998Z,11.00
2023-03-13T01:37:59.639Z,11.00
2023-03-13T01:38:32.796Z,10.88
2023-03-13T01:39:04.024Z,9.56
2023-03-13T01:39:35.972Z,10.38
2023-03-13T01:39:51.685Z,10.88
2023-03-13T01:40:23.371Z,10.54
2023-03-13T01:40:41.432Z,10.38
2023-03-13T01:41:16.630Z,10.62
2023-03-13T01:41:35.553Z,10.00
2023-03-13T01:41:59.333Z,10.00
2023-03-13T01:42:42.825Z,9.16
2023-03-13T01:43:05.169Z,9.16
2023-03-13T01:43:34.203Z,9.85
2023-03-13T01:44:07.628Z,9.74
2023-03-13T01:44:42.462Z,9.51
2023-03-13T01:45:13.153Z,9.80
2023-03-13T01:45:34.267Z,9.80
2023-03-13T01:45:59.517Z,10.88
2023-03-13T01:46:31.440Z,10.33
2023-03-13T01:47:06.996Z,10.25
2023-03-13T01:47:38.040Z,10.77
2023-03-13T01:48:07.149Z,9.03
2023-03-13T01:48:34.683Z,9.03
2023-03-13T01:48:57.816Z,10.33
2023-03-13T01:49:26.968Z,10.77
2023-03-13T01:50:03.218Z,10.77
2023-03-13T01:50:32.115Z,10.77
2023-03-13T01:51:03.768Z,10.41
2023-03-13T01:51:35.800Z,10.77
2023-03-13T01:52:12.482Z,10.33
2023-03-13T01:52:35.780Z,9.07
2023-03-13T01:52:55.040Z,9.53
2023-03-13T01:53:38.106Z,10.77
2023-03-13T01:54:01.117Z,10.77
2023-03-13T01:54:32.010Z,10.77
2023-03-13T01:55:06.569Z,10.77
2023-03-13T01:55:34.577Z,10.50
2023-03-13T01:55:52.216Z,10.00
2023-03-13T01:56:23.485Z,10.00
2023-03-13T01:56:42.526Z,10.25
2023-03-13T01:57:11.873Z,10.07
2023-03-13T01:57:34.101Z,10.00
2023-03-13T01:57:59.025Z,9.87
2023-03-13T01:58:30.989Z,9.26
2023-03-13T01:59:03.025Z,10.07
2023-03-13T01:59:35.073Z,10.77
2023-03-13T02:00:07.330Z,10.88
2023-03-13T02:00:34.063Z,10.88
2023-03-13T02:00:55.148Z,10.62
2023-03-13T02:01:27.754Z,10.88
2023-03-13T02:01:59.090Z,10.77
2023-03-13T02:02:31.712Z,10.33
2023-03-13T02:03:03.123Z,9.94
2023-03-13T02:03:34.769Z,9.94
2023-03-13T02:04:06.987Z,10.77
2023-03-13T02:04:34.211Z,10.77
2023-03-13T02:04:55.007Z,10.77
2023-03-13T02:05:27.307Z,9.72
2023-03-13T02:05:59.783Z,10.33
2023-03-13T02:06:31.072Z,10.77
2023-03-13T02:07:03.752Z,10.14
2023-03-13T02:07:34.128Z,9.78
2023-03-13T02:08:07.805Z,9.26
2023-03-13T02:08:34.349Z,9.87
2023-03-13T02:08:54.972Z,10.14
2023-03-13T02:09:27.024Z,10.88
2023-03-13T02:09:59.034Z,10.46
2023-03-13T02:10:31.125Z,10.20
2023-03-13T02:11:02.977Z,10.88
2023-03-13T02:11:34.014Z,10.88
2023-03-13T02:12:06.940Z,10.88
2023-03-13T02:12:33.990Z,10.88
2023-03-13T02:12:54.982Z,10.46
2023-03-13T02:13:27.599Z,9.74
2023-03-13T02:13:58.888Z,10.13
2023-03-13T02:14:31.616Z,10.46
2023-03-13T02:15:19.173Z,8.79
2023-03-13T02:15:50.901Z,10.88
2023-03-13T02:16:22.992Z,10.88
2023-03-13T02:16:40.814Z,10.20
2023-03-13T02:17:11.104Z,9.66
2023-03-13T02:17:33.987Z,9.61
2023-03-13T02:17:58.901Z,9.91
2023-03-13T02:18:30.986Z,8.51
2023-03-13T02:19:03.767Z,10.62
2023-03-13T02:19:34.131Z,9.91
2023-03-13T02:20:07.906Z,11.00
2023-03-13T02:20:34.156Z,11.00
2023-03-13T02:20:55.143Z,11.00
2023-03-13T02:21:27.025Z,11.00
2023-03-13T02:21:59.044Z,11.00
2023-03-13T02:22:30.999Z,11.00
2023-03-13T02:23:02.950Z,11.11
2023-03-13T02:23:34.075Z,11.11
2023-03-13T02:24:07.017Z,11.11
2023-03-13T02:24:34.991Z,11.11
2023-03-13T02:24:54.957Z,11.11
2023-03-13T02:25:27.108Z,11.11
2023-03-13T02:25:58.938Z,11.11
2023-03-13T02:26:31.254Z,11.00
2023-03-13T02:27:02.969Z,11.11
2023-03-13T02:27:34.041Z,11.11
2023-03-13T02:28:07.647Z,11.11
2023-03-13T02:28:34.094Z,11.11
2023-03-13T02:28:55.020Z,11.11
2023-03-13T02:29:26.953Z,11.11
2023-03-13T02:29:58.955Z,11.11
2023-03-13T02:30:31.059Z,11.11
2023-03-13T02:31:19.721Z,11.11
2023-03-13T02:31:51.021Z,11.22
2023-03-13T02:32:23.642Z,11.22
2023-03-13T02:32:40.740Z,11.22
2023-03-13T02:33:11.130Z,11.22
2023-03-13T02:33:34.015Z,11.22
2023-03-13T02:33:58.903Z,11.22
2023-03-13T02:34:31.622Z,11.22
2023-03-13T02:35:03.213Z,11.22
2023-03-13T02:35:34.887Z,11.22
2023-03-13T02:36:06.920Z,11.27
2023-03-13T02:36:34.427Z,11.27
2023-03-13T02:36:54.936Z,11.27
2023-03-13T02:37:27.148Z,11.27
2023-03-13T02:37:59.715Z,11.27
2023-03-13T02:38:30.937Z,11.27
2023-03-13T02:39:03.714Z,11.27
2023-03-13T02:39:34.223Z,11.22
2023-03-13T02:40:06.448Z,11.22
2023-03-13T02:40:23.599Z,11.22
2023-03-13T02:40:40.842Z,11.22
2023-03-13T02:41:10.935Z,11.22
2023-03-13T02:41:34.011Z,11.22
2023-03-13T02:41:58.882Z,11.22
2023-03-13T02:42:31.611Z,11.22
2023-03-13T02:43:02.988Z,11.27
2023-03-13T02:43:34.707Z,11.27
2023-03-13T02:44:07.625Z,11.27
2023-03-13T02:44:34.304Z,11.27
2023-03-13T02:44:55.449Z,11.27
2023-03-13T02:45:27.312Z,11.27
2023-03-13T02:46:00.236Z,11.27
2023-03-13T02:46:30.942Z,11.27
2023-03-13T02:47:03.785Z,11.27
2023-03-13T02:47:34.153Z,11.27
2023-03-13T02:47:50.913Z,11.27
2023-03-13T02:48:22.932Z,11.27
2023-03-13T02:48:40.038Z,11.27
2023-03-13T02:49:11.761Z,11.27
2023-03-13T02:49:34.018Z,11.27
2023-03-13T02:49:58.928Z,11.27
2023-03-13T02:50:31.057Z,11.27
2023-03-13T02:51:02.940Z,11.27
2023-03-13T02:51:33.976Z,11.27
2023-03-13T02:51:50.879Z,11.38
2023-03-13T02:52:23.750Z,11.38
2023-03-13T02:52:40.846Z,11.38
2023-03-13T02:53:10.954Z,11.38
2023-03-13T02:53:34.007Z,11.38
2023-03-13T02:53:58.940Z,11.38
2023-03-13T02:54:31.672Z,11.50
2023-03-13T02:55:03.095Z,11.50
2023-03-13T02:55:34.928Z,11.50
2023-03-13T02:56:06.923Z,11.50
2023-03-13T02:56:34.031Z,11.50
2023-03-13T02:56:54.952Z,11.50
2023-03-13T02:57:27.050Z,11.50
2023-03-13T02:57:59.637Z,11.50
2023-03-13T02:58:33.587Z,11.38
2023-03-13T02:59:03.723Z,11.38
2023-03-13T02:59:34.730Z,11.38
2023-03-13T03:00:08.008Z,11.38
2023-03-13T03:00:34.117Z,11.38
2023-03-13T03:00:55.471Z,11.50
2023-03-13T03:01:26.901Z,11.50
2023-03-13T03:01:58.980Z,11.50
2023-03-13T03:02:30.985Z,11.50
2023-03-13T03:03:02.968Z,11.50
2023-03-13T03:03:34.073Z,11.50
2023-03-13T03:03:50.995Z,11.50
2023-03-13T03:04:23.783Z,11.50
2023-03-13T03:04:40.860Z,11.50
2023-03-13T03:05:11.141Z,11.50
2023-03-13T03:05:34.358Z,11.50
2023-03-13T03:05:59.117Z,11.50
2023-03-13T03:06:31.698Z,11.50
2023-03-13T03:07:02.959Z,11.61
2023-03-13T03:07:34.757Z,11.61
2023-03-13T03:08:06.909Z,11.61
2023-03-13T03:08:34.059Z,11.61
2023-03-13T03:08:54.938Z,11.61
2023-03-13T03:09:26.936Z,11.61
2023-03-13T03:09:59.682Z,11.61
2023-03-13T03:10:31.352Z,11.61
2023-03-13T03:11:03.705Z,11.61
2023-03-13T03:11:34.072Z,11.61
2023-03-13T03:11:50.907Z,11.61
2023-03-13T03:12:22.928Z,11.61
2023-03-13T03:12:40.037Z,11.61
2023-03-13T03:13:11.798Z,11.61
2023-03-13T03:13:34.020Z,11.61
2023-03-13T03:13:58.929Z,11.72
2023-03-13T03:14:30.857Z,11.72
2023-03-13T03:15:03.241Z,11.72
2023-03-13T03:15:34.021Z,11.72
2023-03-13T03:16:07.025Z,11.72
2023-03-13T03:16:34.140Z,11.72
2023-03-13T03:16:55.058Z,11.72
2023-03-13T03:17:27.653Z,11.72
2023-03-13T03:17:58.995Z,11.72
2023-03-13T03:18:33.654Z,11.77
2023-03-13T03:19:19.007Z,11.77
2023-03-13T03:19:50.897Z,11.77
2023-03-13T03:20:23.121Z,11.77
2023-03-13T03:20:40.810Z,11.77
2023-03-13T03:21:10.986Z,11.77
2023-03-13T03:21:34.068Z,11.77
2023-03-13T03:21:58.961Z,11.77
2023-03-13T03:22:30.922Z,11.77
2023-03-13T03:23:03.643Z,11.77
2023-03-13T03:23:34.035Z,11.77
2023-03-13T03:23:50.858Z,11.77
2023-03-13T03:24:22.949Z,11.77
2023-03-13T03:24:40.893Z,11.77
2023-03-13T03:25:11.079Z,11.77
2023-03-13T03:25:34.028Z,11.77
2023-03-13T03:25:59.042Z,11.77
2023-03-13T03:26:31.332Z,11.77
2023-03-13T03:27:03.629Z,11.72
2023-03-13T03:27:34.505Z,11.72
2023-03-13T03:28:07.610Z,11.72
2023-03-13T03:28:34.015Z,11.72
2023-03-13T03:28:54.904Z,11.72
2023-03-13T03:29:26.992Z,11.72
2023-03-13T03:29:58.899Z,11.72
2023-03-13T03:30:31.049Z,11.72
2023-03-13T03:31:02.922Z,11.72
2023-03-13T03:31:34.058Z,11.72
2023-03-13T03:32:07.280Z,11.72
2023-03-13T03:32:34.166Z,11.72
2023-03-13T03:32:55.073Z,11.72
2023-03-13T03:33:27.623Z,11.72
2023-03-13T03:33:58.938Z,11.72
2023-03-13T03:34:31.579Z,11.72
2023-03-13T03:35:03.134Z,11.72
2023-03-13T03:35:35.067Z,11.72
2023-03-13T03:36:06.950Z,11.72
2023-03-13T03:36:34.019Z,11.72
2023-03-13T03:36:54.916Z,11.72
2023-03-13T03:37:26.841Z,11.72
2023-03-13T03:37:59.692Z,11.72
2023-03-13T03:38:30.893Z,11.72
2023-03-13T03:39:03.726Z,11.72
2023-03-13T03:39:34.045Z,11.72
2023-03-13T03:39:50.875Z,11.72
2023-03-13T03:40:23.142Z,11.77
2023-03-13T03:40:40.045Z,11.77
2023-03-13T03:41:11.760Z,11.77
2023-03-13T03:41:34.039Z,11.77
2023-03-13T03:41:58.932Z,11.77
2023-03-13T03:42:30.917Z,11.77
2023-03-13T03:43:02.918Z,11.77
2023-03-13T03:43:34.055Z,11.77
2023-03-13T03:43:50.869Z,11.77
2023-03-13T03:44:23.693Z,11.88
2023-03-13T03:44:40.831Z,11.88
2023-03-13T03:45:11.129Z,11.88
2023-03-13T03:45:34.086Z,11.88
2023-03-13T03:45:59.111Z,11.88
2023-03-13T03:46:31.587Z,11.88
2023-03-13T03:47:03.066Z,12.00
2023-03-13T03:47:34.723Z,12.00
2023-03-13T03:48:06.874Z,12.00
2023-03-13T03:48:34.048Z,12.00
2023-03-13T03:48:55.370Z,12.00
2023-03-13T03:49:26.859Z,12.00
2023-03-13T03:49:59.621Z,12.00
2023-03-13T03:50:31.005Z,12.00
2023-03-13T03:51:03.728Z,12.00
2023-03-13T03:51:34.099Z,12.00
2023-03-13T03:51:50.864Z,12.00
2023-03-13T03:52:22.896Z,12.00
2023-03-13T03:52:40.005Z,12.00
2023-03-13T03:53:11.672Z,12.00
2023-03-13T03:53:34.236Z,12.00
2023-03-13T03:53:58.912Z,12.00
2023-03-13T03:54:30.959Z,12.00
2023-03-13T03:55:03.191Z,12.00
2023-03-13T03:55:35.149Z,12.00
2023-03-13T03:55:51.055Z,12.11
2023-03-13T03:56:23.604Z,12.11
2023-03-13T03:56:40.717Z,12.11
2023-03-13T03:57:10.949Z,12.11
2023-03-13T03:57:34.031Z,12.00
2023-03-13T03:57:58.925Z,12.00
2023-03-13T03:58:31.729Z,12.00
2023-03-13T03:59:02.920Z,12.00
2023-03-13T03:59:34.765Z,12.00
2023-03-13T04:00:07.190Z,12.00
2023-03-13T04:00:34.070Z,12.00
2023-03-13T04:00:55.039Z,12.00
2023-03-13T04:01:26.859Z,12.00
2023-03-13T04:01:59.795Z,12.00
2023-03-13T04:02:31.040Z,12.11
2023-03-13T04:03:03.727Z,12.11
2023-03-13T04:03:34.001Z,12.11
2023-03-13T04:03:51.011Z,12.11
2023-03-13T04:04:22.888Z,12.11
2023-03-13T04:04:40.023Z,12.11
2023-03-13T04:05:11.878Z,12.11
2023-03-13T04:05:34.056Z,12.11
2023-03-13T04:05:59.068Z,12.11
2023-03-13T04:06:30.877Z,12.11
2023-03-13T04:07:02.940Z,12.11
2023-03-13T04:07:34.022Z,12.11
2023-03-13T04:07:50.902Z,12.11
2023-03-13T04:08:23.688Z,12.11
2023-03-13T04:08:40.807Z,12.11
2023-03-13T04:09:10.979Z,12.11
2023-03-13T04:09:34.037Z,12.11
2023-03-13T04:09:58.927Z,12.11
2023-03-13T04:10:31.809Z,12.22
2023-03-13T04:11:02.918Z,12.22
2023-03-13T04:11:34.787Z,12.22
2023-03-13T04:12:06.875Z,12.22
2023-03-13T04:12:34.033Z,12.22
2023-03-13T04:12:55.033Z,12.22
2023-03-13T04:13:26.903Z,12.27
2023-03-13T04:13:59.763Z,12.27
2023-03-13T04:14:30.934Z,12.27
2023-03-13T04:15:04.198Z,12.27
2023-03-13T04:15:33.989Z,12.27
2023-03-13T04:15:51.046Z,12.27
2023-03-13T04:16:22.962Z,12.27
2023-03-13T04:16:40.055Z,12.27
2023-03-13T04:17:11.781Z,12.27
2023-03-13T04:17:33.979Z,12.27
2023-03-13T04:17:58.933Z,12.27
2023-03-13T04:18:30.837Z,12.27
2023-03-13T04:19:02.938Z,12.27
2023-03-13T04:19:34.029Z,12.27
2023-03-13T04:19:50.892Z,12.38
2023-03-13T04:20:23.799Z,12.38
2023-03-13T04:20:40.794Z,12.38
2023-03-13T04:21:10.972Z,12.38
2023-03-13T04:21:34.031Z,12.38
2023-03-13T04:21:58.953Z,12.38
2023-03-13T04:22:31.771Z,12.38
2023-03-13T04:23:02.897Z,12.38
2023-03-13T04:23:34.028Z,12.38
2023-03-13T04:23:50.902Z,12.38
2023-03-13T04:24:22.883Z,12.38
2023-03-13T04:24:40.814Z,12.38
2023-03-13T04:25:11.209Z,12.38
2023-03-13T04:25:34.045Z,12.38
2023-03-13T04:25:59.025Z,12.38
2023-03-13T04:26:30.929Z,12.38
2023-03-13T04:27:03.730Z,12.38
2023-03-13T04:27:34.043Z,12.38
2023-03-13T04:27:50.912Z,12.38
2023-03-13T04:28:22.921Z,12.38
2023-03-13T04:28:40.042Z,12.38
2023-03-13T04:29:11.668Z,12.38
2023-03-13T04:29:34.063Z,12.38
2023-03-13T04:29:58.924Z,12.38
2023-03-13T04:30:31.551Z,12.38
2023-03-13T04:31:03.109Z,12.38
2023-03-13T04:31:34.012Z,12.38
2023-03-13T04:31:50.948Z,12.38
2023-03-13T04:32:23.625Z,12.38
2023-03-13T04:32:40.828Z,12.38
2023-03-13T04:33:10.954Z,12.38
2023-03-13T04:33:34.078Z,12.38
2023-03-13T04:33:58.919Z,12.38
2023-03-13T04:34:31.700Z,12.38
2023-03-13T04:35:03.126Z,12.38
2023-03-13T04:35:35.024Z,12.38
2023-03-13T04:36:07.486Z,12.38
2023-03-13T04:36:33.984Z,12.38
2023-03-13T04:36:54.903Z,12.38
2023-03-13T04:37:26.841Z,12.38
2023-03-13T04:37:59.648Z,12.38
2023-03-13T04:38:30.886Z,12.38
2023-03-13T04:39:03.622Z,12.38
2023-03-13T04:39:34.054Z,12.38
2023-03-13T04:39:51.232Z,12.38
2023-03-13T04:40:23.153Z,12.38
2023-03-13T04:40:39.989Z,12.38
2023-03-13T04:41:11.786Z,12.38
2023-03-13T04:41:34.153Z,12.38
2023-03-13T04:41:58.904Z,12.38
2023-03-13T04:42:31.434Z,12.38
2023-03-13T04:43:02.911Z,12.38
2023-03-13T04:43:34.548Z,12.38
2023-03-13T04:44:07.012Z,12.38
2023-03-13T04:44:34.038Z,12.38
2023-03-13T04:44:54.861Z,12.38
2023-03-13T04:45:27.954Z,12.38
2023-03-13T04:45:58.975Z,12.38
2023-03-13T04:46:31.677Z,12.38
2023-03-13T04:47:02.955Z,12.38
2023-03-13T04:47:35.042Z,12.38
2023-03-13T04:48:06.855Z,12.38
2023-03-13T04:48:34.070Z,12.38
2023-03-13T04:48:55.013Z,12.38
2023-03-13T04:49:26.831Z,12.38
2023-03-13T04:49:59.666Z,12.38
2023-03-13T04:50:31.020Z,12.38
2023-03-13T04:51:03.670Z,12.38
2023-03-13T04:51:34.003Z,12.38
2023-03-13T04:51:50.920Z,12.38
2023-03-13T04:52:22.835Z,12.38
2023-03-13T04:52:40.308Z,12.38
2023-03-13T04:53:11.698Z,12.50
2023-03-13T04:53:34.011Z,12.50
2023-03-13T04:53:58.922Z,12.50
2023-03-13T04:54:30.840Z,12.50
2023-03-13T04:55:03.142Z,12.50
2023-03-13T04:55:34.071Z,12.50
2023-03-13T04:55:51.027Z,12.50
2023-03-13T04:56:41.005Z,12.50
2023-03-13T04:56:55.424Z,12.50
2023-03-13T04:57:27.598Z,12.50
2023-03-13T04:57:58.977Z,12.38
2023-03-13T04:58:31.517Z,12.38
2023-03-13T04:59:02.899Z,12.38
2023-03-13T04:59:34.757Z,12.38
2023-03-13T05:00:07.172Z,12.50
2023-03-13T05:00:34.081Z,12.50
2023-03-13T05:00:55.102Z,12.50
2023-03-13T05:01:26.941Z,12.50
2023-03-13T05:01:59.676Z,12.50
2023-03-13T05:02:30.855Z,12.50
2023-03-13T05:03:03.651Z,12.50
2023-03-13T05:03:33.993Z,12.50
2023-03-13T05:03:50.934Z,12.50
2023-03-13T05:04:22.849Z,12.50
2023-03-13T05:04:40.304Z,12.50
2023-03-13T05:05:11.919Z,12.50
2023-03-13T05:05:34.183Z,12.50
2023-03-13T05:05:59.014Z,12.50
2023-03-13T05:06:30.874Z,12.50
2023-03-13T05:07:02.900Z,12.50
2023-03-13T05:07:34.033Z,12.50
2023-03-13T05:07:50.940Z,12.61
2023-03-13T05:08:23.553Z,12.61
2023-03-13T05:08:40.776Z,12.61
2023-03-13T05:09:10.992Z,12.61
2023-03-13T05:09:34.063Z,12.61
2023-03-13T05:09:58.891Z,12.61
2023-03-13T05:10:31.823Z,12.61
2023-03-13T05:11:02.936Z,12.61
2023-03-13T05:11:34.940Z,12.61
2023-03-13T05:12:06.883Z,12.61
2023-03-13T05:12:34.031Z,12.61
2023-03-13T05:12:54.914Z,12.61
2023-03-13T05:13:26.851Z,12.61
2023-03-13T05:13:59.641Z,12.61
2023-03-13T05:14:30.836Z,12.61
2023-03-13T05:15:03.936Z,12.61
2023-03-13T05:15:34.119Z,12.61
2023-03-13T05:15:51.150Z,12.61
2023-03-13T05:16:23.008Z,12.72
2023-03-13T05:16:40.029Z,12.72
2023-03-13T05:17:11.628Z,12.72
2023-03-13T05:17:34.036Z,12.72
2023-03-13T05:17:58.897Z,12.72
2023-03-13T05:18:30.826Z,12.72
2023-03-13T05:19:02.914Z,12.72
2023-03-13T05:19:34.557Z,12.72
2023-03-13T05:20:06.985Z,12.72
2023-03-13T05:20:34.045Z,12.72
2023-03-13T05:20:54.959Z,12.61
2023-03-13T05:21:27.610Z,12.61
2023-03-13T05:21:58.900Z,12.61
2023-03-13T05:22:31.613Z,12.61
2023-03-13T05:23:02.923Z,12.61
2023-03-13T05:23:34.042Z,12.61
2023-03-13T05:23:50.910Z,12.61
2023-03-13T05:24:22.842Z,12.61
2023-03-13T05:24:41.909Z,12.61
2023-03-13T05:25:11.093Z,12.72
2023-03-13T05:25:34.054Z,12.72
2023-03-13T05:25:59.033Z,12.72
2023-03-13T05:26:30.845Z,12.72
2023-03-13T05:27:03.604Z,12.72
2023-03-13T05:27:34.084Z,12.72
2023-03-13T05:27:50.901Z,12.72
2023-03-13T05:28:22.818Z,12.72
2023-03-13T05:28:39.962Z,12.72
2023-03-13T05:29:11.627Z,12.72
2023-03-13T05:29:34.233Z,12.72
2023-03-13T05:29:58.862Z,12.72
2023-03-13T05:30:31.523Z,12.72
2023-03-13T05:31:02.898Z,12.72
2023-03-13T05:31:34.096Z,12.72
2023-03-13T05:31:50.953Z,12.72
2023-03-13T05:32:23.717Z,12.72
2023-03-13T05:32:40.842Z,12.72
2023-03-13T05:33:10.920Z,12.72
2023-03-13T05:33:34.014Z,12.72
2023-03-13T05:33:58.964Z,12.72
2023-03-13T05:34:31.571Z,12.72
2023-03-13T05:35:03.046Z,12.72
2023-03-13T05:35:41.371Z,12.72
2023-03-13T05:36:07.214Z,12.72
2023-03-13T05:36:34.131Z,12.72
2023-03-13T05:36:55.791Z,12.72
2023-03-13T05:37:26.865Z,12.72
2023-03-13T05:37:59.752Z,12.72
2023-03-13T05:38:33.866Z,12.77
2023-03-13T05:39:08.725Z,12.77
2023-03-13T05:39:34.074Z,12.77
2023-03-13T05:39:51.617Z,12.77
2023-03-13T05:40:23.900Z,12.77
2023-03-13T05:40:40.790Z,12.77
2023-03-13T05:41:10.954Z,12.77
2023-03-13T05:41:34.100Z,12.77
2023-03-13T05:41:58.954Z,12.77
2023-03-13T05:42:32.559Z,12.77
2023-03-13T05:43:02.984Z,12.77
2023-03-13T05:43:36.946Z,12.77
2023-03-13T05:44:07.003Z,12.77
2023-03-13T05:44:34.047Z,12.77
2023-03-13T05:45:12.105Z,12.88
2023-03-13T05:45:34.061Z,12.88
2023-03-13T05:46:01.562Z,12.88
2023-03-13T05:46:30.965Z,12.88
2023-03-13T05:47:04.171Z,12.88
2023-03-13T05:47:34.077Z,12.88
2023-03-13T05:47:51.846Z,12.88
2023-03-13T05:48:22.888Z,12.88
2023-03-13T05:48:40.079Z,12.88
2023-03-13T05:49:13.819Z,12.88
2023-03-13T05:49:34.910Z,12.88
2023-03-13T05:49:59.976Z,12.88
2023-03-13T05:50:31.087Z,12.88
2023-03-13T05:51:02.916Z,12.88
2023-03-13T05:51:34.080Z,12.88
2023-03-13T05:52:02.877Z,12.88
2023-03-13T05:52:22.888Z,12.88
2023-03-13T05:52:40.761Z,12.88
2023-03-13T05:53:10.968Z,12.88
2023-03-13T05:53:34.891Z,12.88
2023-03-13T05:53:59.207Z,12.88
2023-03-13T05:54:30.927Z,12.88
2023-03-13T05:55:04.573Z,13.00
2023-03-13T05:55:34.073Z,13.00
2023-03-13T05:55:53.605Z,13.00
2023-03-13T05:56:22.854Z,13.00
2023-03-13T05:56:41.391Z,13.00
2023-03-13T05:57:12.580Z,13.00
2023-03-13T05:57:34.123Z,13.00
2023-03-13T05:58:04.735Z,13.11
2023-03-13T05:58:30.841Z,13.11
2023-03-13T05:59:02.927Z,13.11
2023-03-13T05:59:35.204Z,13.11
2023-03-13T06:00:07.249Z,13.11
2023-03-13T06:00:53.223Z,13.11
2023-03-13T06:01:10.969Z,13.11
2023-03-13T06:01:34.306Z,13.11
2023-03-13T06:02:00.399Z,13.11
2023-03-13T06:02:31.857Z,13.11
2023-03-13T06:03:05.401Z,13.11
2023-03-13T06:03:34.710Z,13.11
2023-03-13T06:04:08.178Z,13.11
2023-03-13T06:04:34.185Z,13.11
2023-03-13T06:04:55.001Z,13.11
2023-03-13T06:05:29.381Z,13.11
2023-03-13T06:05:58.915Z,13.11
2023-03-13T06:06:30.915Z,13.11
2023-03-13T06:07:02.861Z,13.11
2023-03-13T06:07:35.119Z,13.11
2023-03-13T06:08:06.834Z,13.11
2023-03-13T06:08:38.449Z,13.11
2023-03-13T06:08:55.064Z,13.11
2023-03-13T06:09:38.168Z,13.11
2023-03-13T06:09:58.919Z,13.11
2023-03-13T06:10:31.030Z,13.11